Time;durP1;ratioP1;P1;durP2;ratioP2;P2;SDS_P1;SDS_P2;PMS_P1;PMS_P2;Temp;Humidity;BMP_temperature;BMP_pressure;BME280_temperature;BME280_humidity;BME280_pressure;Samples;Min_cycle;Max_cycle;Signal;HPM_P1;HPM_P2
2023/11/07 00:00:36;;;;;;;;;;;13.60;66.80;;;;;;5038522;28;81889;-51
2023/11/07 00:03:01;;;;;;;;;;;13.60;66.80;;;;;;5039024;27;82928;-55
2023/11/07 00:05:27;;;;;;;;;;;13.60;66.80;;;;;;5039697;28;84006;-50
2023/11/07 00:07:52;;;;;;;;;;;13.60;66.80;;;;;;5031143;28;83522;-52
2023/11/07 00:10:18;;;;;;;;;;;13.50;66.80;;;;;;5036041;28;83115;-51
2023/11/07 00:12:44;;;;;;;;;;;13.50;66.80;;;;;;5035492;27;82091;-56
2023/11/07 00:15:09;;;;;;;;;;;13.50;66.70;;;;;;5033668;28;84783;-56
2023/11/07 00:17:36;;;;;;;;;;;13.50;66.80;;;;;;5037315;27;82150;-55
2023/11/07 00:20:02;;;;;;;;;;;13.50;66.90;;;;;;5038188;28;82198;-53
2023/11/07 00:22:28;;;;;;;;;;;13.50;66.80;;;;;;5041614;28;82631;-53
2023/11/07 00:24:54;;;;;;;;;;;13.50;66.70;;;;;;5036974;28;82903;-54
2023/11/07 00:27:19;;;;;;;;;;;13.50;66.60;;;;;;5032756;28;82534;-54
2023/11/07 00:29:46;;;;;;;;;;;13.40;66.60;;;;;;5033763;28;84319;-54
2023/11/07 00:32:11;;;;;;;;;;;13.50;66.60;;;;;;5036164;28;82080;-53
2023/11/07 00:34:37;;;;;;;;;;;13.50;66.70;;;;;;5039020;28;82467;-50
2023/11/07 00:37:03;;;;;;;;;;;13.40;66.70;;;;;;5037204;28;82959;-51
2023/11/07 00:39:29;;;;;;;;;;;13.50;66.70;;;;;;5035577;28;82317;-51
2023/11/07 00:41:55;;;;;;;;;;;13.40;66.80;;;;;;5033740;28;81979;-54
2023/11/07 00:44:21;;;;;;;;;;;13.40;66.70;;;;;;5038965;27;82881;-51
2023/11/07 00:46:47;;;;;;;;;;;13.40;66.60;;;;;;5032211;28;82837;-53
2023/11/07 00:49:13;;;;;;;;;;;13.40;66.60;;;;;;5035666;27;83687;-56
2023/11/07 00:51:38;;;;;;;;;;;13.40;66.70;;;;;;5036346;28;82114;-52
2023/11/07 00:54:04;;;;;;;;;;;13.30;66.70;;;;;;5038375;27;83892;-56
2023/11/07 00:56:30;;;;;;;;;;;13.40;66.80;;;;;;5038266;28;82968;-54
2023/11/07 00:58:55;;;;;;;;;;;13.30;66.70;;;;;;5032393;28;83612;-54
2023/11/07 01:01:21;;;;;;;;;;;13.30;66.60;;;;;;5034326;28;82055;-51
2023/11/07 01:03:46;;;;;;;;;;;13.30;66.70;;;;;;5034351;28;82951;-51
2023/11/07 01:06:12;;;;;;;;;;;13.30;66.70;;;;;;5039493;28;83632;-55
2023/11/07 01:08:38;;;;;;;;;;;13.30;66.70;;;;;;5032379;27;82951;-51
2023/11/07 01:11:04;;;;;;;;;;;13.20;66.70;;;;;;5035089;27;81512;-52
2023/11/07 01:13:29;;;;;;;;;;;13.20;66.70;;;;;;5035325;27;82123;-54
2023/11/07 01:15:55;;;;;;;;;;;13.30;66.70;;;;;;5037163;28;82190;-55
2023/11/07 01:18:21;;;;;;;;;;;13.20;66.60;;;;;;5034323;27;83024;-55
2023/11/07 01:20:46;;;;;;;;;;;13.30;66.60;;;;;;5035385;28;82617;-53
2023/11/07 01:23:12;;;;;;;;;;;13.20;66.60;;;;;;5037364;28;82492;-52
2023/11/07 01:25:38;;;;;;;;;;;13.20;66.50;;;;;;5036287;28;82101;-52
2023/11/07 01:28:03;;;;;;;;;;;13.20;66.50;;;;;;5036320;27;82117;-52
2023/11/07 01:30:29;;;;;;;;;;;13.20;66.60;;;;;;5039453;27;82172;-50
2023/11/07 01:32:55;;;;;;;;;;;13.20;66.50;;;;;;5030430;28;82055;-51
2023/11/07 01:35:21;;;;;;;;;;;13.20;66.50;;;;;;5031961;28;82821;-54
2023/11/07 01:37:46;;;;;;;;;;;13.20;66.40;;;;;;5035243;28;82199;-53
2023/11/07 01:40:12;;;;;;;;;;;13.20;66.40;;;;;;5035135;28;82633;-52
2023/11/07 01:42:42;;;;;;;;;;;13.20;66.40;;;;;;5034705;28;85613;-52
2023/11/07 01:45:10;;;;;;;;;;;13.20;66.40;;;;;;5031799;27;82080;-51
2023/11/07 01:47:36;;;;;;;;;;;13.10;66.40;;;;;;5036816;28;83981;-50
2023/11/07 01:50:02;;;;;;;;;;;13.10;66.30;;;;;;5033878;28;82118;-52
2023/11/07 01:52:28;;;;;;;;;;;13.10;66.30;;;;;;5039185;27;83692;-53
2023/11/07 01:54:54;;;;;;;;;;;13.10;66.40;;;;;;5038890;28;84167;-53
2023/11/07 01:57:19;;;;;;;;;;;13.10;66.30;;;;;;5037023;27;82023;-55
2023/11/07 01:59:45;;;;;;;;;;;13.10;66.20;;;;;;5031689;28;82580;-53
2023/11/07 02:02:17;;;;;;;;;;;13.10;66.20;;;;;;5033546;28;83172;-55
2023/11/07 02:04:44;;;;;;;;;;;13.10;66.20;;;;;;5036920;28;82269;-50
2023/11/07 02:07:10;;;;;;;;;;;13.10;66.20;;;;;;5036633;28;82970;-55
2023/11/07 02:09:35;;;;;;;;;;;13.00;66.20;;;;;;5036792;28;82055;-52
2023/11/07 02:12:01;;;;;;;;;;;13.00;66.20;;;;;;5033303;28;81999;-53
2023/11/07 02:14:32;;;;;;;;;;;13.00;66.20;;;;;;5035947;28;83036;-55
2023/11/07 02:16:58;;;;;;;;;;;13.00;66.20;;;;;;5033507;28;82081;-52
2023/11/07 02:19:24;;;;;;;;;;;13.00;66.30;;;;;;5031940;27;83559;-53
2023/11/07 02:21:51;;;;;;;;;;;12.90;66.20;;;;;;5030527;28;83207;-51
2023/11/07 02:24:16;;;;;;;;;;;13.00;66.20;;;;;;5035785;27;81302;-53
2023/11/07 02:26:42;;;;;;;;;;;12.90;66.20;;;;;;5036299;28;81995;-51
2023/11/07 02:29:08;;;;;;;;;;;13.00;66.20;;;;;;5031382;27;84613;-53
2023/11/07 02:31:34;;;;;;;;;;;12.90;66.20;;;;;;5034502;28;82943;-56
2023/11/07 02:34:05;;;;;;;;;;;12.90;66.10;;;;;;5034747;28;82157;-50
2023/11/07 02:36:34;;;;;;;;;;;12.90;66.00;;;;;;5035239;28;81974;-55
2023/11/07 02:39:00;;;;;;;;;;;12.90;66.10;;;;;;5028423;28;84026;-56
2023/11/07 02:41:26;;;;;;;;;;;12.90;66.00;;;;;;5032438;28;82880;-50
2023/11/07 02:43:51;;;;;;;;;;;12.90;66.00;;;;;;5035287;28;82568;-54
2023/11/07 02:46:17;;;;;;;;;;;12.90;66.00;;;;;;5035223;28;82777;-51
2023/11/07 02:48:42;;;;;;;;;;;12.90;66.10;;;;;;5033334;28;83456;-53
2023/11/07 02:51:14;;;;;;;;;;;12.90;66.00;;;;;;5036578;28;81938;-53
2023/11/07 02:53:39;;;;;;;;;;;12.80;65.90;;;;;;5036297;28;83351;-55
2023/11/07 02:56:05;;;;;;;;;;;12.80;66.00;;;;;;5032469;27;83211;-55
2023/11/07 02:58:31;;;;;;;;;;;12.80;65.90;;;;;;5036489;27;83450;-51
2023/11/07 03:00:57;;;;;;;;;;;12.80;65.90;;;;;;5037932;28;83031;-51
2023/11/07 03:03:22;;;;;;;;;;;12.80;66.00;;;;;;5031964;28;82072;-52
2023/11/07 03:05:48;;;;;;;;;;;12.70;66.00;;;;;;5032398;28;83078;-54
2023/11/07 03:08:13;;;;;;;;;;;12.70;65.90;;;;;;5033716;28;82393;-53
2023/11/07 03:10:39;;;;;;;;;;;12.70;65.90;;;;;;5034080;28;82033;-51
2023/11/07 03:13:04;;;;;;;;;;;12.70;65.90;;;;;;5029144;28;81552;-53
2023/11/07 03:15:30;;;;;;;;;;;12.70;65.90;;;;;;5035701;28;83156;-53
2023/11/07 03:17:56;;;;;;;;;;;12.70;65.90;;;;;;5034673;28;82521;-54
2023/11/07 03:20:22;;;;;;;;;;;12.70;66.00;;;;;;5038151;28;83967;-55
2023/11/07 03:22:47;;;;;;;;;;;12.60;65.90;;;;;;5032437;28;82474;-54
2023/11/07 03:25:13;;;;;;;;;;;12.60;65.90;;;;;;5035563;27;82582;-56
2023/11/07 03:27:39;;;;;;;;;;;12.60;66.00;;;;;;5031128;28;82741;-54
2023/11/07 03:30:05;;;;;;;;;;;12.60;65.90;;;;;;5033722;28;82113;-50
2023/11/07 03:32:31;;;;;;;;;;;12.60;65.90;;;;;;5036485;28;82455;-55
2023/11/07 03:34:58;;;;;;;;;;;12.60;65.90;;;;;;5030942;28;83002;-56
2023/11/07 03:37:23;;;;;;;;;;;12.60;65.90;;;;;;5038545;28;81490;-54
2023/11/07 03:39:49;;;;;;;;;;;12.60;65.90;;;;;;5035359;28;82239;-55
2023/11/07 03:42:15;;;;;;;;;;;12.60;65.90;;;;;;5032166;28;82238;-54
2023/11/07 03:44:40;;;;;;;;;;;12.50;65.90;;;;;;5041948;28;83069;-55
2023/11/07 03:47:06;;;;;;;;;;;12.50;65.80;;;;;;5037303;28;83089;-51
2023/11/07 03:49:32;;;;;;;;;;;12.50;65.80;;;;;;5037261;28;82144;-55
2023/11/07 03:51:57;;;;;;;;;;;12.50;65.90;;;;;;5038556;28;82480;-54
2023/11/07 03:54:23;;;;;;;;;;;12.50;65.90;;;;;;5039100;28;83223;-55
2023/11/07 03:56:49;;;;;;;;;;;12.50;66.00;;;;;;5037829;28;82097;-50
2023/11/07 03:59:15;;;;;;;;;;;12.40;65.80;;;;;;5035695;27;84289;-53
2023/11/07 04:01:40;;;;;;;;;;;12.40;65.90;;;;;;5037867;28;81211;-54
2023/11/07 04:04:06;;;;;;;;;;;12.50;66.00;;;;;;5035186;28;82139;-50
2023/11/07 04:06:31;;;;;;;;;;;12.40;65.90;;;;;;5035942;28;83212;-54
2023/11/07 04:08:58;;;;;;;;;;;12.40;65.90;;;;;;5041335;27;84567;-53
2023/11/07 04:11:24;;;;;;;;;;;12.40;65.90;;;;;;5032618;27;84905;-50
2023/11/07 04:13:50;;;;;;;;;;;12.40;65.80;;;;;;5035179;28;82703;-52
2023/11/07 04:16:16;;;;;;;;;;;12.40;65.80;;;;;;5034567;27;82018;-54
2023/11/07 04:18:42;;;;;;;;;;;12.40;65.80;;;;;;5038006;28;82555;-51
2023/11/07 04:21:08;;;;;;;;;;;12.30;65.70;;;;;;5037231;27;82127;-55
2023/11/07 04:23:34;;;;;;;;;;;12.30;65.80;;;;;;5036504;28;82602;-54
2023/11/07 04:25:59;;;;;;;;;;;12.30;65.70;;;;;;5036774;27;82347;-49
2023/11/07 04:28:26;;;;;;;;;;;12.30;65.70;;;;;;5035649;28;82156;-53
2023/11/07 04:30:52;;;;;;;;;;;12.30;65.70;;;;;;5036705;27;84006;-50
2023/11/07 04:33:18;;;;;;;;;;;12.30;65.70;;;;;;5032881;28;84645;-56
2023/11/07 04:35:44;;;;;;;;;;;12.30;65.80;;;;;;5038023;28;83798;-54
2023/11/07 04:38:10;;;;;;;;;;;12.30;65.70;;;;;;5035329;28;84086;-55
2023/11/07 04:40:36;;;;;;;;;;;12.20;65.70;;;;;;5037178;28;83291;-53
2023/11/07 04:43:02;;;;;;;;;;;12.20;65.70;;;;;;5036958;28;82362;-53
2023/11/07 04:45:28;;;;;;;;;;;12.20;65.60;;;;;;5036009;28;82938;-53
2023/11/07 04:47:54;;;;;;;;;;;12.20;65.70;;;;;;5038314;28;83022;-55
2023/11/07 04:50:21;;;;;;;;;;;12.20;65.60;;;;;;5035903;28;83917;-53
2023/11/07 04:52:47;;;;;;;;;;;12.20;65.60;;;;;;5037079;27;82306;-51
2023/11/07 04:55:12;;;;;;;;;;;12.20;65.60;;;;;;5040258;28;83685;-52
2023/11/07 04:57:38;;;;;;;;;;;12.20;65.70;;;;;;5037547;28;82958;-52
2023/11/07 05:00:05;;;;;;;;;;;12.10;65.60;;;;;;5038388;28;82805;-55
2023/11/07 05:02:30;;;;;;;;;;;12.10;65.60;;;;;;5038079;28;82072;-52
2023/11/07 05:04:56;;;;;;;;;;;12.20;65.60;;;;;;5034000;28;84020;-54
2023/11/07 05:07:22;;;;;;;;;;;12.10;65.60;;;;;;5033132;27;82890;-53
2023/11/07 05:09:47;;;;;;;;;;;12.10;65.70;;;;;;5036112;28;82785;-53
2023/11/07 05:12:13;;;;;;;;;;;12.10;65.60;;;;;;5035277;28;84434;-55
2023/11/07 05:14:39;;;;;;;;;;;12.10;65.60;;;;;;5033589;27;81398;-53
2023/11/07 05:17:04;;;;;;;;;;;12.10;65.70;;;;;;5037494;28;82155;-53
2023/11/07 05:19:30;;;;;;;;;;;12.00;65.60;;;;;;5035637;28;83494;-52
2023/11/07 05:21:56;;;;;;;;;;;12.00;65.60;;;;;;5032973;28;83117;-50
2023/11/07 05:24:22;;;;;;;;;;;12.00;65.60;;;;;;5040467;28;84691;-53
2023/11/07 05:26:48;;;;;;;;;;;12.10;65.60;;;;;;5030045;28;82217;-53
2023/11/07 05:29:14;;;;;;;;;;;12.00;65.50;;;;;;5036771;27;82977;-49
2023/11/07 05:31:40;;;;;;;;;;;12.00;65.60;;;;;;5034624;28;84581;-52
2023/11/07 05:34:06;;;;;;;;;;;12.00;65.60;;;;;;5032079;28;82591;-53
2023/11/07 05:36:32;;;;;;;;;;;12.00;65.70;;;;;;5034313;28;84232;-53
2023/11/07 05:38:58;;;;;;;;;;;11.90;65.50;;;;;;5034430;28;82413;-53
2023/11/07 05:41:25;;;;;;;;;;;12.00;65.60;;;;;;5034728;27;83048;-53
2023/11/07 05:43:51;;;;;;;;;;;12.00;65.60;;;;;;5040512;28;85743;-53
2023/11/07 05:46:17;;;;;;;;;;;11.90;65.50;;;;;;5033374;28;83096;-53
2023/11/07 05:48:43;;;;;;;;;;;11.90;65.60;;;;;;5035274;28;84744;-53
2023/11/07 05:51:09;;;;;;;;;;;11.90;65.50;;;;;;5037614;27;84502;-53
2023/11/07 05:53:34;;;;;;;;;;;11.90;65.50;;;;;;5034846;28;82112;-53
2023/11/07 05:56:01;;;;;;;;;;;11.90;65.50;;;;;;5033924;28;83808;-50
2023/11/07 05:58:27;;;;;;;;;;;11.90;65.40;;;;;;5033708;27;84354;-50
2023/11/07 06:00:54;;;;;;;;;;;11.90;65.50;;;;;;5034542;28;82188;-53
2023/11/07 06:03:19;;;;;;;;;;;11.90;65.40;;;;;;5034586;28;83860;-52
2023/11/07 06:05:45;;;;;;;;;;;11.90;65.40;;;;;;5034817;28;83837;-51
2023/11/07 06:08:10;;;;;;;;;;;11.90;65.40;;;;;;5031535;28;82316;-53
2023/11/07 06:10:36;;;;;;;;;;;11.80;65.40;;;;;;5035760;28;85379;-52
2023/11/07 06:13:05;;;;;;;;;;;11.80;65.40;;;;;;5038954;27;82116;-49
2023/11/07 06:15:31;;;;;;;;;;;11.90;65.40;;;;;;5032673;28;82416;-55
2023/11/07 06:17:57;;;;;;;;;;;11.80;65.40;;;;;;5037662;27;84470;-53
2023/11/07 06:20:23;;;;;;;;;;;11.80;65.50;;;;;;5035369;28;82062;-52
2023/11/07 06:22:50;;;;;;;;;;;11.80;65.50;;;;;;5038063;27;84006;-54
2023/11/07 06:25:16;;;;;;;;;;;11.80;65.40;;;;;;5032395;27;84382;-55
2023/11/07 06:27:42;;;;;;;;;;;11.80;65.50;;;;;;5037684;27;81312;-52
2023/11/07 06:30:09;;;;;;;;;;;11.80;65.30;;;;;;5032274;28;82936;-48
2023/11/07 06:32:35;;;;;;;;;;;11.80;65.30;;;;;;5032179;27;82138;-53
2023/11/07 06:35:01;;;;;;;;;;;11.80;65.30;;;;;;5036554;28;83692;-50
2023/11/07 06:37:33;;;;;;;;;;;11.80;65.30;;;;;;5036214;28;82241;-54
2023/11/07 06:40:00;;;;;;;;;;;11.80;65.40;;;;;;5037812;28;83201;-50
2023/11/07 06:42:25;;;;;;;;;;;11.80;65.30;;;;;;5037592;27;84072;-54
2023/11/07 06:44:51;;;;;;;;;;;11.70;65.30;;;;;;5034197;28;83920;-54
2023/11/07 06:47:17;;;;;;;;;;;11.70;65.40;;;;;;5035546;28;82210;-55
2023/11/07 06:49:42;;;;;;;;;;;11.80;65.30;;;;;;5036793;28;82986;-49
2023/11/07 06:52:08;;;;;;;;;;;11.80;65.40;;;;;;5036011;28;81685;-54
2023/11/07 06:54:33;;;;;;;;;;;11.70;65.40;;;;;;5035152;28;81964;-48
2023/11/07 06:56:59;;;;;;;;;;;11.70;65.40;;;;;;5031425;28;83133;-53
2023/11/07 06:59:25;;;;;;;;;;;11.70;65.30;;;;;;5031596;27;83199;-51
2023/11/07 07:01:51;;;;;;;;;;;11.70;65.40;;;;;;5032319;27;83024;-52
2023/11/07 07:04:17;;;;;;;;;;;11.70;65.30;;;;;;5033652;28;84555;-54
2023/11/07 07:09:27;;;;;;;;;;;11.70;65.40;;;;;;5036608;28;82993;-51
2023/11/07 07:11:53;;;;;;;;;;;11.70;65.30;;;;;;5036691;27;83214;-52
2023/11/07 07:14:19;;;;;;;;;;;11.70;65.40;;;;;;5037856;27;82807;-50
2023/11/07 07:16:44;;;;;;;;;;;11.70;65.40;;;;;;5036368;27;82593;-52
2023/11/07 07:19:15;;;;;;;;;;;11.70;65.50;;;;;;5038948;28;83747;-52
2023/11/07 07:21:40;;;;;;;;;;;11.60;65.50;;;;;;5038431;27;83949;-53
2023/11/07 07:24:15;;;;;;;;;;;11.70;65.70;;;;;;5039680;28;84077;-51
2023/11/07 07:26:44;;;;;;;;;;;11.60;65.60;;;;;;5036708;28;82037;-51
2023/11/07 07:29:13;;;;;;;;;;;11.70;65.60;;;;;;5036538;28;83996;-53
2023/11/07 07:31:42;;;;;;;;;;;11.70;65.50;;;;;;5035701;27;84455;-50
2023/11/07 07:34:08;;;;;;;;;;;11.70;65.60;;;;;;5039615;28;82507;-53
2023/11/07 07:36:43;;;;;;;;;;;11.70;65.50;;;;;;5035831;28;82933;-55
2023/11/07 07:39:18;;;;;;;;;;;11.70;65.50;;;;;;5034721;28;82132;-53
2023/11/07 07:41:44;;;;;;;;;;;11.70;65.60;;;;;;5034311;28;83976;-53
2023/11/07 07:44:12;;;;;;;;;;;11.60;66.10;;;;;;5035853;28;82931;-51
2023/11/07 07:46:38;;;;;;;;;;;11.60;65.60;;;;;;5032017;28;82719;-53
2023/11/07 07:49:10;;;;;;;;;;;11.60;65.80;;;;;;5034378;28;83692;-54
2023/11/07 07:51:38;;;;;;;;;;;11.60;65.70;;;;;;5033985;27;84396;-53
2023/11/07 07:54:04;;;;;;;;;;;11.60;65.70;;;;;;5037679;28;82111;-50
2023/11/07 07:56:31;;;;;;;;;;;11.60;65.70;;;;;;5036478;28;83027;-52
2023/11/07 07:58:57;;;;;;;;;;;11.60;66.00;;;;;;5037721;28;82986;-53
2023/11/07 08:01:22;;;;;;;;;;;11.60;65.80;;;;;;5035242;27;82919;-53
2023/11/07 08:03:48;;;;;;;;;;;11.60;66.00;;;;;;5032576;28;83805;-53
2023/11/07 08:06:15;;;;;;;;;;;11.60;66.20;;;;;;5039620;28;82033;-52
2023/11/07 08:08:41;;;;;;;;;;;11.60;66.00;;;;;;5038082;28;81958;-54
2023/11/07 08:11:07;;;;;;;;;;;11.60;66.10;;;;;;5034899;28;83594;-53
2023/11/07 08:13:33;;;;;;;;;;;11.60;66.10;;;;;;5036365;27;83150;-54
2023/11/07 08:15:58;;;;;;;;;;;11.60;66.20;;;;;;5041213;27;82859;-53
2023/11/07 08:18:24;;;;;;;;;;;11.60;66.30;;;;;;5034963;28;82302;-56
2023/11/07 08:20:50;;;;;;;;;;;11.60;66.30;;;;;;5037396;28;81984;-50
2023/11/07 08:23:15;;;;;;;;;;;11.60;66.30;;;;;;5035017;27;84337;-52
2023/11/07 08:25:41;;;;;;;;;;;11.60;66.30;;;;;;5036660;27;82128;-52
2023/11/07 08:28:09;;;;;;;;;;;11.60;66.40;;;;;;5032635;28;81980;-48
2023/11/07 08:30:37;;;;;;;;;;;11.60;66.40;;;;;;5040926;27;83715;-48
2023/11/07 08:33:02;;;;;;;;;;;11.50;66.40;;;;;;5034689;28;82366;-52
2023/11/07 08:35:28;;;;;;;;;;;11.50;66.50;;;;;;5036985;28;82469;-53
2023/11/07 08:37:54;;;;;;;;;;;11.50;66.40;;;;;;5034830;27;84436;-53
2023/11/07 08:40:21;;;;;;;;;;;11.60;66.50;;;;;;5039572;28;83813;-55
2023/11/07 08:42:48;;;;;;;;;;;11.60;66.50;;;;;;5033113;28;83640;-54
2023/11/07 08:45:15;;;;;;;;;;;11.60;66.50;;;;;;5041789;28;83794;-52
2023/11/07 08:47:44;;;;;;;;;;;11.60;66.70;;;;;;5034706;28;84088;-51
2023/11/07 08:50:10;;;;;;;;;;;11.50;66.70;;;;;;5036292;28;84605;-52
2023/11/07 08:52:37;;;;;;;;;;;11.50;66.60;;;;;;5035134;27;82058;-52
2023/11/07 08:55:05;;;;;;;;;;;11.50;66.80;;;;;;5036537;27;83694;-54
2023/11/07 08:57:31;;;;;;;;;;;11.50;66.70;;;;;;5039735;27;84580;-52
2023/11/07 08:59:57;;;;;;;;;;;11.50;66.90;;;;;;5039817;27;83888;-49
2023/11/07 09:02:23;;;;;;;;;;;11.50;66.90;;;;;;5037464;27;84124;-52
2023/11/07 09:04:48;;;;;;;;;;;11.50;67.00;;;;;;5041500;28;82168;-51
2023/11/07 09:07:16;;;;;;;;;;;11.50;66.80;;;;;;5034977;28;82755;-47
2023/11/07 09:09:42;;;;;;;;;;;11.50;66.90;;;;;;5034879;27;84545;-51
2023/11/07 09:12:10;;;;;;;;;;;11.60;66.90;;;;;;5036469;28;82140;-54
2023/11/07 09:14:35;;;;;;;;;;;11.60;67.00;;;;;;5035808;27;82619;-50
2023/11/07 09:17:01;;;;;;;;;;;11.50;66.80;;;;;;5034799;28;82963;-49
2023/11/07 09:19:27;;;;;;;;;;;11.60;67.00;;;;;;5037632;27;81567;-49
2023/11/07 09:21:52;;;;;;;;;;;11.50;66.90;;;;;;5037209;28;82145;-55
2023/11/07 09:24:18;;;;;;;;;;;11.50;67.00;;;;;;5037329;28;82455;-48
2023/11/07 09:26:43;;;;;;;;;;;11.50;66.90;;;;;;5033549;28;83008;-52
2023/11/07 09:29:09;;;;;;;;;;;11.50;67.10;;;;;;5032806;28;83125;-50
2023/11/07 09:31:34;;;;;;;;;;;11.50;67.00;;;;;;5032626;28;82135;-50
2023/11/07 09:34:00;;;;;;;;;;;11.60;67.30;;;;;;5034213;27;82179;-47
2023/11/07 09:36:26;;;;;;;;;;;11.50;67.20;;;;;;5032173;28;82923;-51
2023/11/07 09:38:52;;;;;;;;;;;11.50;67.20;;;;;;5035404;27;82108;-49
2023/11/07 09:41:17;;;;;;;;;;;11.50;67.40;;;;;;5032963;28;82867;-48
2023/11/07 09:43:44;;;;;;;;;;;11.50;67.60;;;;;;5040669;28;81317;-49
2023/11/07 09:46:10;;;;;;;;;;;11.40;67.60;;;;;;5035715;28;82114;-47
2023/11/07 09:48:36;;;;;;;;;;;11.40;67.80;;;;;;5036345;28;83101;-49
2023/11/07 09:51:04;;;;;;;;;;;11.50;67.30;;;;;;5030615;28;83079;-51
2023/11/07 09:53:30;;;;;;;;;;;11.50;67.40;;;;;;5039018;27;83328;-49
2023/11/07 09:55:56;;;;;;;;;;;11.50;67.50;;;;;;5034905;28;84440;-50
2023/11/07 09:58:28;;;;;;;;;;;11.50;67.30;;;;;;5031278;28;82180;-51
2023/11/07 10:00:57;;;;;;;;;;;11.50;67.40;;;;;;5036537;28;83975;-54
2023/11/07 10:03:23;;;;;;;;;;;11.50;67.30;;;;;;5038056;27;84127;-52
2023/11/07 10:05:50;;;;;;;;;;;11.60;67.30;;;;;;5034309;27;82438;-49
2023/11/07 10:08:18;;;;;;;;;;;11.60;67.30;;;;;;5033804;27;81561;-48
2023/11/07 10:10:44;;;;;;;;;;;11.60;67.30;;;;;;5033756;27;82230;-48
2023/11/07 10:13:10;;;;;;;;;;;11.60;67.30;;;;;;5033968;28;82727;-51
2023/11/07 10:15:36;;;;;;;;;;;11.60;67.50;;;;;;5040165;27;84761;-48
2023/11/07 10:18:06;;;;;;;;;;;11.60;67.60;;;;;;5033656;28;82118;-52
2023/11/07 10:20:32;;;;;;;;;;;11.60;67.50;;;;;;5035841;28;84006;-48
2023/11/07 10:22:59;;;;;;;;;;;11.60;67.50;;;;;;5032173;28;84252;-48
2023/11/07 10:25:31;;;;;;;;;;;11.60;67.50;;;;;;5039842;28;82211;-50
2023/11/07 10:28:00;;;;;;;;;;;11.60;67.60;;;;;;5032912;28;84759;-53
2023/11/07 10:30:35;;;;;;;;;;;11.60;67.70;;;;;;5032899;28;82035;-53
2023/11/07 10:33:03;;;;;;;;;;;11.60;67.60;;;;;;5034715;28;84005;-54
2023/11/07 10:35:29;;;;;;;;;;;11.60;68.00;;;;;;5034974;27;84234;-52
2023/11/07 10:37:55;;;;;;;;;;;11.60;67.80;;;;;;5035503;27;81766;-55
2023/11/07 10:40:20;;;;;;;;;;;11.60;67.90;;;;;;5031070;28;84787;-51
2023/11/07 10:42:47;;;;;;;;;;;11.60;68.30;;;;;;5039559;28;82668;-51
2023/11/07 10:45:14;;;;;;;;;;;11.60;68.30;;;;;;5033726;28;83820;-51
2023/11/07 10:47:41;;;;;;;;;;;11.60;68.30;;;;;;5039100;28;83500;-54
2023/11/07 10:50:07;;;;;;;;;;;11.70;68.40;;;;;;5038242;28;82120;-50
2023/11/07 10:52:33;;;;;;;;;;;11.70;68.40;;;;;;5041065;28;82040;-49
2023/11/07 10:54:59;;;;;;;;;;;11.70;68.50;;;;;;5034904;27;88073;-53
2023/11/07 10:57:28;;;;;;;;;;;11.70;68.40;;;;;;5034121;28;86807;-54
2023/11/07 11:00:12;;;;;;;;;;;11.70;68.50;;;;;;5030398;27;87868;-50
2023/11/07 11:02:40;;;;;;;;;;;11.70;68.50;;;;;;5032499;28;88039;-56
2023/11/07 11:05:11;;;;;;;;;;;11.70;68.60;;;;;;5035436;27;89230;-55
2023/11/07 11:07:38;;;;;;;;;;;11.70;68.50;;;;;;5032231;27;90103;-51
2023/11/07 11:10:05;;;;;;;;;;;11.70;68.80;;;;;;5036024;27;89482;-53
2023/11/07 11:12:33;;;;;;;;;;;11.70;68.70;;;;;;5034184;27;88672;-48
2023/11/07 11:14:58;;;;;;;;;;;11.70;68.80;;;;;;5031495;28;89562;-56
2023/11/07 11:17:33;;;;;;;;;;;11.80;68.80;;;;;;5033672;27;87155;-50
2023/11/07 11:20:22;;;;;;;;;;;11.70;68.70;;;;;;5032284;28;88091;-53
2023/11/07 11:22:55;;;;;;;;;;;11.70;68.80;;;;;;5033835;28;87259;-52
2023/11/07 11:25:35;;;;;;;;;;;11.70;68.80;;;;;;5035213;28;87181;-52
2023/11/07 11:28:01;;;;;;;;;;;11.80;68.80;;;;;;5036277;28;87410;-55
2023/11/07 11:30:28;;;;;;;;;;;11.80;68.90;;;;;;5033555;28;88748;-54
2023/11/07 11:33:06;;;;;;;;;;;11.80;68.80;;;;;;5035085;28;87166;-53
2023/11/07 11:35:34;;;;;;;;;;;11.80;68.90;;;;;;5035370;28;88469;-56
2023/11/07 11:40:59;;;;;;;;;;;11.90;68.80;;;;;;5031684;28;87756;-52
2023/11/07 11:43:34;;;;;;;;;;;11.80;68.80;;;;;;5025134;28;89417;-54
2023/11/07 11:46:15;;;;;;;;;;;11.80;68.90;;;;;;5036067;28;87335;-53
2023/11/07 11:48:50;;;;;;;;;;;11.90;68.90;;;;;;5035595;28;87518;-53
2023/11/07 11:51:41;;;;;;;;;;;11.90;68.90;;;;;;5032095;28;88565;-53
2023/11/07 11:54:10;;;;;;;;;;;11.90;68.90;;;;;;5029820;28;86995;-51
2023/11/07 11:56:48;;;;;;;;;;;11.90;68.90;;;;;;5039290;27;88728;-52
2023/11/07 11:59:16;;;;;;;;;;;11.90;68.80;;;;;;5031502;28;87158;-55
2023/11/07 12:01:49;;;;;;;;;;;11.90;68.80;;;;;;5037536;27;89084;-55
2023/11/07 12:04:28;;;;;;;;;;;12.00;68.90;;;;;;5030853;28;88477;-51
2023/11/07 12:07:06;;;;;;;;;;;11.90;68.90;;;;;;5031397;28;87126;-53
2023/11/07 12:09:32;;;;;;;;;;;12.00;68.80;;;;;;5034144;28;88871;-53
2023/11/07 12:11:57;;;;;;;;;;;12.00;69.00;;;;;;5033436;27;88928;-54
2023/11/07 12:14:23;;;;;;;;;;;12.00;68.90;;;;;;5033750;28;86641;-56
2023/11/07 12:16:55;;;;;;;;;;;12.00;68.90;;;;;;5040903;27;87188;-52
2023/11/07 12:19:20;;;;;;;;;;;12.00;69.10;;;;;;5034108;28;87965;-53
2023/11/07 12:21:46;;;;;;;;;;;12.00;69.10;;;;;;5029772;28;90636;-52
2023/11/07 12:24:12;;;;;;;;;;;12.00;69.00;;;;;;5031696;28;88133;-53
2023/11/07 12:26:39;;;;;;;;;;;12.00;69.00;;;;;;5033354;28;87068;-55
2023/11/07 12:29:06;;;;;;;;;;;12.00;69.10;;;;;;5034930;27;87742;-52
2023/11/07 12:31:35;;;;;;;;;;;12.00;68.90;;;;;;5031260;28;88591;-53
2023/11/07 12:34:01;;;;;;;;;;;12.10;69.00;;;;;;5038538;27;87090;-53
2023/11/07 12:36:27;;;;;;;;;;;12.10;69.10;;;;;;5035317;27;87108;-52
2023/11/07 12:38:52;;;;;;;;;;;12.10;69.20;;;;;;5038640;27;87447;-53
2023/11/07 12:41:18;;;;;;;;;;;12.10;69.10;;;;;;5032186;27;87513;-53
2023/11/07 12:43:43;;;;;;;;;;;12.10;69.20;;;;;;5031083;27;89469;-53
2023/11/07 12:46:10;;;;;;;;;;;12.10;69.10;;;;;;5031553;28;87983;-51
2023/11/07 12:48:38;;;;;;;;;;;12.10;69.20;;;;;;5031749;27;88741;-52
2023/11/07 12:51:08;;;;;;;;;;;12.10;69.20;;;;;;5031259;28;88643;-53
2023/11/07 12:53:44;;;;;;;;;;;12.20;69.20;;;;;;5033177;28;87080;-50
2023/11/07 12:56:09;;;;;;;;;;;12.20;69.30;;;;;;5029392;28;87705;-56
2023/11/07 12:58:35;;;;;;;;;;;12.10;69.30;;;;;;5036422;28;88448;-55
2023/11/07 13:01:04;;;;;;;;;;;12.10;69.20;;;;;;5035987;28;88249;-54
2023/11/07 13:03:33;;;;;;;;;;;12.20;69.50;;;;;;5029547;28;86491;-55
2023/11/07 13:06:00;;;;;;;;;;;12.20;69.30;;;;;;5030533;28;87061;-51
2023/11/07 13:08:29;;;;;;;;;;;12.20;69.30;;;;;;5029539;28;88202;-54
2023/11/07 13:11:12;;;;;;;;;;;12.30;69.40;;;;;;5031219;28;90313;-54
2023/11/07 13:13:38;;;;;;;;;;;12.30;69.30;;;;;;5034584;28;87128;-54
2023/11/07 13:16:07;;;;;;;;;;;12.30;69.40;;;;;;5033126;27;87319;-55
2023/11/07 13:18:32;;;;;;;;;;;12.20;69.40;;;;;;5029546;28;89518;-52
2023/11/07 13:20:58;;;;;;;;;;;12.30;69.40;;;;;;5036874;28;87870;-54
2023/11/07 13:23:23;;;;;;;;;;;12.30;69.60;;;;;;5035894;28;87936;-52
2023/11/07 13:25:49;;;;;;;;;;;12.30;69.50;;;;;;5036402;28;87104;-54
2023/11/07 13:28:14;;;;;;;;;;;12.30;69.60;;;;;;5032220;28;87341;-57
2023/11/07 13:30:42;;;;;;;;;;;12.30;69.60;;;;;;5038039;28;88112;-54
2023/11/07 13:33:07;;;;;;;;;;;12.30;69.50;;;;;;5036756;28;87531;-55
2023/11/07 13:35:37;;;;;;;;;;;12.30;69.50;;;;;;5032049;27;88081;-54
2023/11/07 13:38:02;;;;;;;;;;;12.30;69.50;;;;;;5029880;28;89358;-54
2023/11/07 13:40:28;;;;;;;;;;;12.30;69.60;;;;;;5029892;27;87510;-53
2023/11/07 13:42:54;;;;;;;;;;;12.30;69.40;;;;;;5028700;28;87073;-55
2023/11/07 13:45:20;;;;;;;;;;;12.40;69.50;;;;;;5037585;28;91169;-56
2023/11/07 13:47:45;;;;;;;;;;;12.30;69.60;;;;;;5030368;28;87217;-53
2023/11/07 13:50:11;;;;;;;;;;;12.40;69.50;;;;;;5035329;28;87949;-52
2023/11/07 13:52:39;;;;;;;;;;;12.40;69.60;;;;;;5034197;27;87568;-54
2023/11/07 13:55:05;;;;;;;;;;;12.40;69.60;;;;;;5032963;27;87172;-52
2023/11/07 13:57:30;;;;;;;;;;;12.40;69.50;;;;;;5034961;27;87984;-49
2023/11/07 13:59:57;;;;;;;;;;;12.40;69.60;;;;;;5036390;28;88210;-54
2023/11/07 14:02:24;;;;;;;;;;;12.40;69.60;;;;;;5039780;28;90211;-57
2023/11/07 14:04:49;;;;;;;;;;;12.50;69.50;;;;;;5034782;27;90057;-53
2023/11/07 14:07:16;;;;;;;;;;;12.50;69.50;;;;;;5033204;27;87651;-55
2023/11/07 14:09:42;;;;;;;;;;;12.50;69.60;;;;;;5032797;28;88338;-51
2023/11/07 14:12:08;;;;;;;;;;;12.50;69.60;;;;;;5033922;27;87567;-53
2023/11/07 14:14:33;;;;;;;;;;;12.40;69.70;;;;;;5032062;27;87297;-55
2023/11/07 14:16:59;;;;;;;;;;;12.40;69.80;;;;;;5027430;28;87239;-54
2023/11/07 14:19:25;;;;;;;;;;;12.50;69.80;;;;;;5029836;28;87116;-51